Time;durP1;ratioP1;P1;durP2;ratioP2;P2;SDS_P1;SDS_P2;PMS_P1;PMS_P2;Temp;Humidity;BMP_temperature;BMP_pressure;BME280_temperature;BME280_humidity;BME280_pressure;Samples;Min_cycle;Max_cycle;Signal;HPM_P1;HPM_P2
2021/10/13 00:02:02;;;;;;;8.00;7.17;;;;;;;8.70;96.96;99035.66;4983925;28;103217;-58
2021/10/13 00:04:30;;;;;;;8.20;7.00;;;;;;;8.71;96.77;99041.78;4977770;28;103482;-67
2021/10/13 00:06:58;;;;;;;11.67;10.67;;;;;;;9.12;93.75;99041.97;4992717;28;102610;-59
2021/10/13 00:09:26;;;;;;;9.47;8.57;;;;;;;9.34;92.41;99042.31;4986995;28;104453;-60
2021/10/13 00:11:54;;;;;;;8.95;8.25;;;;;;;9.45;91.16;99039.88;4986649;28;103541;-66
2021/10/13 00:14:24;;;;;;;11.15;10.18;;;;;;;9.35;89.57;99038.72;4984885;28;103490;-67
2021/10/13 00:16:55;;;;;;;12.07;11.07;;;;;;;9.15;91.58;99047.03;4987343;28;102655;-67
2021/10/13 00:19:24;;;;;;;10.18;9.27;;;;;;;9.41;91.02;99048.91;4998244;28;102760;-66
2021/10/13 00:21:52;;;;;;;12.07;10.90;;;;;;;9.14;90.50;99046.19;4985146;28;103635;-66
2021/10/13 00:24:21;;;;;;;12.65;11.55;;;;;;;9.19;91.10;99043.25;4987469;28;103236;-58
2021/10/13 00:26:48;;;;;;;9.23;8.45;;;;;;;9.53;90.22;99042.88;4982096;28;102673;-58
2021/10/13 00:29:16;;;;;;;8.15;7.55;;;;;;;9.70;89.24;99045.31;4985988;28;103953;-59
2021/10/13 00:31:46;;;;;;;9.77;8.98;;;;;;;9.72;87.35;99051.31;4981461;28;103273;-59
2021/10/13 00:34:15;;;;;;;9.67;8.87;;;;;;;9.75;87.44;99059.03;4977879;28;103345;-66
2021/10/13 00:36:43;;;;;;;7.65;7.00;;;;;;;9.78;87.08;99069.41;4984805;28;102681;-67
2021/10/13 00:39:12;;;;;;;7.40;6.60;;;;;;;9.17;88.23;99072.38;4982671;28;103676;-67
2021/10/13 00:41:40;;;;;;;6.30;5.70;;;;;;;8.88;89.98;99068.00;4986260;28;102692;-66
2021/10/13 00:44:08;;;;;;;6.90;5.13;;;;;;;8.70;90.81;99063.81;4990738;28;103237;-65
2021/10/13 00:46:36;;;;;;;9.13;8.23;;;;;;;8.56;91.63;99066.41;4990029;28;102581;-66
2021/10/13 00:49:05;;;;;;;8.63;7.83;;;;;;;9.04;90.38;99074.03;4978708;28;103906;-66
2021/10/13 00:51:34;;;;;;;10.05;9.15;;;;;;;9.29;87.85;99086.59;4984786;28;103938;-66
2021/10/13 00:54:02;;;;;;;9.93;9.13;;;;;;;9.20;87.83;99081.88;4977917;28;103202;-66
2021/10/13 00:56:30;;;;;;;7.53;6.97;;;;;;;9.44;87.96;99069.81;4982766;28;103015;-59
2021/10/13 00:58:58;;;;;;;9.03;8.33;;;;;;;9.57;87.11;99068.09;4985810;28;102672;-59
2021/10/13 01:01:30;;;;;;;8.50;7.80;;;;;;;9.64;87.21;99072.06;4980226;28;103672;-66
2021/10/13 01:04:15;;;;;;;9.25;8.50;;;;;;;9.70;87.66;99065.56;4983537;28;102647;-59
2021/10/13 01:06:52;;;;;;;10.03;9.20;;;;;;;9.70;87.14;99069.03;4984867;28;102727;-65
2021/10/13 01:09:24;;;;;;;10.77;9.93;;;;;;;9.62;88.75;99084.50;4962231;28;103948;-65
2021/10/13 01:12:07;;;;;;;9.90;9.10;;;;;;;9.64;87.63;99087.91;4985520;28;102991;-66
2021/10/13 01:14:43;;;;;;;10.63;9.63;;;;;;;9.51;90.01;99089.59;4985030;28;103369;-59
2021/10/13 01:17:23;;;;;;;9.55;8.85;;;;;;;9.75;88.43;99095.97;4992522;28;102703;-59
2021/10/13 01:19:59;;;;;;;10.07;9.27;;;;;;;9.74;88.38;99104.00;4985803;28;102765;-59
2021/10/13 01:22:42;;;;;;;10.83;9.93;;;;;;;9.79;88.38;99104.56;4984542;28;103213;-59
2021/10/13 01:25:18;;;;;;;9.80;9.00;;;;;;;9.89;88.28;99109.16;4983176;28;103060;-59
2021/10/13 01:27:54;;;;;;;11.48;10.57;;;;;;;9.73;87.32;99113.72;4979972;28;102674;-59
2021/10/13 01:30:24;;;;;;;11.23;10.23;;;;;;;9.81;88.52;99110.59;4981332;28;102624;-59
2021/10/13 01:33:00;;;;;;;11.20;10.20;;;;;;;9.92;88.48;99113.41;4979581;28;103962;-59
2021/10/13 01:35:31;;;;;;;10.27;9.48;;;;;;;10.00;87.57;99118.19;4978598;28;103337;-59
2021/10/13 01:38:03;;;;;;;10.88;9.98;;;;;;;10.06;87.22;99115.16;4972705;28;103023;-59
2021/10/13 01:40:33;;;;;;;10.73;9.73;;;;;;;10.08;87.32;99113.25;4980491;28;103871;-59
2021/10/13 01:43:05;;;;;;;12.18;11.13;;;;;;;9.77;88.15;99127.53;4981078;28;103218;-59
2021/10/13 01:45:34;;;;;;;10.90;10.07;;;;;;;9.88;88.85;99131.22;4983335;28;103409;-59
2021/10/13 01:48:04;;;;;;;10.57;9.77;;;;;;;9.99;88.22;99135.84;4981437;28;103268;-59
2021/10/13 01:50:33;;;;;;;11.40;10.40;;;;;;;10.02;87.40;99142.72;4982714;28;103091;-60
2021/10/13 01:53:04;;;;;;;10.95;10.05;;;;;;;10.01;88.20;99135.72;4978321;28;104177;-59
2021/10/13 01:55:32;;;;;;;11.80;10.80;;;;;;;9.85;87.29;99149.03;4979651;28;103534;-59
2021/10/13 01:58:05;;;;;;;10.48;9.57;;;;;;;9.93;88.57;99145.91;4982632;28;102978;-59
2021/10/13 02:00:33;;;;;;;11.35;10.45;;;;;;;9.84;88.20;99158.75;4986410;28;102747;-58
2021/10/13 02:03:05;;;;;;;10.57;9.68;;;;;;;9.65;89.79;99163.47;4986574;28;104324;-59
2021/10/13 02:05:35;;;;;;;11.40;10.48;;;;;;;9.78;88.26;99160.91;4990182;28;103357;-59
2021/10/13 02:08:03;;;;;;;11.43;10.53;;;;;;;9.57;88.54;99165.69;4986841;28;102921;-59
2021/10/13 02:10:32;;;;;;;11.68;10.38;;;;;;;9.61;89.22;99167.22;4989842;28;102714;-59
2021/10/13 02:13:02;;;;;;;10.10;9.30;;;;;;;9.76;88.54;99171.56;4986954;28;103519;-59
2021/10/13 02:15:33;;;;;;;10.98;10.07;;;;;;;9.74;87.38;99167.34;4985140;28;103238;-59
2021/10/13 02:18:01;;;;;;;9.40;8.60;;;;;;;9.82;88.10;99165.88;4986109;28;102959;-59
2021/10/13 02:20:30;;;;;;;9.23;8.43;;;;;;;9.68;88.73;99175.63;4991601;28;104061;-59
2021/10/13 02:23:02;;;;;;;10.00;9.10;;;;;;;9.80;87.26;99174.84;4994043;28;104214;-59
2021/10/13 02:25:35;;;;;;;10.52;9.63;;;;;;;9.76;86.48;99176.84;4990192;28;103196;-59
2021/10/13 02:28:06;;;;;;;9.70;8.90;;;;;;;9.83;87.40;99183.44;4983551;28;102642;-60
2021/10/13 02:30:38;;;;;;;10.18;9.27;;;;;;;9.94;86.18;99179.31;4991203;28;102744;-59
2021/10/13 02:33:06;;;;;;;7.95;7.30;;;;;;;10.02;86.68;99182.31;4986531;28;104110;-58
2021/10/13 02:35:34;;;;;;;7.85;7.25;;;;;;;10.05;86.24;99187.41;4985280;28;103031;-66
2021/10/13 02:38:02;;;;;;;10.03;9.03;;;;;;;10.09;85.63;99188.88;4987469;28;102995;-66
2021/10/13 02:40:31;;;;;;;7.38;6.78;;;;;;;10.20;85.72;99192.59;4987997;28;102637;-60
2021/10/13 02:42:59;;;;;;;10.52;9.57;;;;;;;9.99;85.33;99198.34;4988177;28;103265;-59
2021/10/13 02:45:28;;;;;;;9.83;8.93;;;;;;;9.87;86.18;99200.78;4981016;28;103243;-59
2021/10/13 02:48:03;;;;;;;11.05;9.95;;;;;;;9.95;87.05;99204.72;4985167;28;103039;-67
2021/10/13 02:50:37;;;;;;;11.98;10.50;;;;;;;9.87;85.76;99200.78;4982998;28;102884;-59
2021/10/13 02:53:19;;;;;;;11.00;10.00;;;;;;;9.90;86.08;99205.88;4991120;28;104193;-59
2021/10/13 02:55:52;;;;;;;11.93;10.65;;;;;;;9.74;87.35;99209.56;4988498;28;103781;-67
2021/10/13 02:58:23;;;;;;;11.20;10.20;;;;;;;9.71;87.27;99210.56;4986707;28;102627;-59
2021/10/13 03:00:53;;;;;;;11.30;10.30;;;;;;;9.79;86.88;99216.25;4984099;28;103815;-66
2021/10/13 03:03:32;;;;;;;12.02;10.95;;;;;;;9.83;87.12;99209.81;4991761;28;103204;-60
2021/10/13 03:06:02;;;;;;;11.20;10.20;;;;;;;9.92;86.73;99213.69;4984497;28;103208;-67
2021/10/13 03:08:33;;;;;;;12.05;10.98;;;;;;;9.79;87.05;99213.63;4986063;28;102654;-59
2021/10/13 03:11:02;;;;;;;10.77;9.77;;;;;;;9.91;86.74;99204.91;4990836;27;103799;-67
2021/10/13 03:13:35;;;;;;;12.32;11.23;;;;;;;9.90;86.03;99211.16;4990046;28;103223;-67
2021/10/13 03:16:05;;;;;;;13.55;12.32;;;;;;;9.49;87.95;99207.53;4987169;28;103223;-58
2021/10/13 03:18:39;;;;;;;13.45;12.25;;;;;;;9.47;87.99;99212.03;4991690;28;103303;-67
2021/10/13 03:21:08;;;;;;;12.70;11.50;;;;;;;9.40;89.03;99204.59;4992853;28;102905;-67
2021/10/13 03:23:36;;;;;;;12.70;11.60;;;;;;;9.43;87.85;99205.25;5003275;28;103384;-67
2021/10/13 03:26:07;;;;;;;11.73;10.73;;;;;;;9.59;88.27;99205.19;4987241;28;103225;-67
2021/10/13 03:28:37;;;;;;;11.80;10.80;;;;;;;9.60;87.89;99210.38;4989171;28;102864;-67
2021/10/13 03:31:06;;;;;;;11.03;9.93;;;;;;;9.69;87.90;99211.59;4980269;28;102965;-66
2021/10/13 03:33:37;;;;;;;13.02;11.85;;;;;;;9.55;87.04;99220.34;4981345;28;103255;-67
2021/10/13 03:36:06;;;;;;;11.57;10.45;;;;;;;9.50;87.56;99217.16;4983438;28;103243;-66
2021/10/13 03:38:34;;;;;;;13.05;11.90;;;;;;;9.45;87.04;99213.09;4980715;28;102948;-59
2021/10/13 03:41:03;;;;;;;12.25;11.15;;;;;;;9.45;87.58;99216.56;4988913;28;103923;-67
2021/10/13 03:43:30;;;;;;;11.10;10.10;;;;;;;9.61;87.79;99221.75;4988933;28;103989;-67
2021/10/13 03:45:58;;;;;;;12.95;11.65;;;;;;;9.67;86.64;99224.91;4978628;28;103221;-59
2021/10/13 03:48:27;;;;;;;13.20;12.00;;;;;;;9.46;87.91;99222.72;4979883;28;102764;-60
2021/10/13 03:50:56;;;;;;;14.85;13.35;;;;;;;9.10;88.92;99228.31;4985509;28;102761;-58
2021/10/13 03:53:25;;;;;;;13.27;12.02;;;;;;;9.12;90.35;99237.03;4981918;28;103510;-58
2021/10/13 03:55:52;;;;;;;13.40;12.13;;;;;;;9.23;89.26;99242.50;4985573;28;103216;-59
2021/10/13 03:58:21;;;;;;;15.50;13.90;;;;;;;8.97;89.23;99248.44;4983798;28;102621;-59
2021/10/13 04:00:48;;;;;;;12.52;11.43;;;;;;;9.29;88.78;99244.81;4985661;28;103760;-59
2021/10/13 04:03:17;;;;;;;13.57;12.33;;;;;;;9.43;87.32;99244.81;4990100;28;104099;-59
2021/10/13 04:05:45;;;;;;;13.47;12.27;;;;;;;9.41;88.21;99237.94;4983832;28;103235;-59
2021/10/13 04:08:15;;;;;;;14.47;13.13;;;;;;;9.34;87.59;99242.72;4981743;28;103216;-70
2021/10/13 04:10:43;;;;;;;14.53;13.23;;;;;;;8.97;88.54;99246.66;4990036;28;103120;-60
2021/10/13 04:13:11;;;;;;;16.13;14.63;;;;;;;9.00;89.97;99253.53;4981745;28;103328;-60
2021/10/13 04:15:39;;;;;;;16.67;15.15;;;;;;;8.87;89.92;99248.09;4982550;28;103184;-60
2021/10/13 04:18:07;;;;;;;17.10;15.50;;;;;;;8.81;90.82;99263.41;4982621;28;102589;-60
2021/10/13 04:20:35;;;;;;;16.95;15.32;;;;;;;8.51;92.61;99266.81;4983336;28;103866;-60
2021/10/13 04:23:03;;;;;;;16.67;15.18;;;;;;;8.89;91.96;99272.59;4984529;28;103390;-60
2021/10/13 04:25:33;;;;;;;15.38;13.98;;;;;;;9.14;90.35;99277.31;4986108;28;103223;-60
2021/10/13 04:28:01;;;;;;;15.10;13.77;;;;;;;9.08;90.64;99280.28;4984348;28;102947;-60
2021/10/13 04:30:29;;;;;;;16.92;15.32;;;;;;;8.66;91.82;99287.03;4982527;28;102954;-59
2021/10/13 04:32:57;;;;;;;18.23;16.38;;;;;;;8.64;92.75;99283.66;4986873;28;103185;-58
2021/10/13 04:35:25;;;;;;;16.33;14.82;;;;;;;8.75;92.49;99290.97;4979116;28;103218;-59
2021/10/13 04:37:53;;;;;;;15.77;14.37;;;;;;;9.09;90.71;99289.91;4978844;28;102679;-58
2021/10/13 04:40:21;;;;;;;16.33;14.83;;;;;;;8.99;89.93;99288.72;4979914;28;102762;-58
2021/10/13 04:42:51;;;;;;;15.20;13.77;;;;;;;9.18;90.68;99282.31;4987507;28;104155;-69
2021/10/13 04:45:19;;;;;;;12.73;11.63;;;;;;;9.35;89.26;99291.88;4976338;28;103325;-68
2021/10/13 04:47:47;;;;;;;15.07;13.60;;;;;;;9.33;90.29;99294.63;4984007;28;103368;-68
2021/10/13 04:50:15;;;;;;;16.97;15.37;;;;;;;9.20;90.97;99292.78;4982184;28;102764;-68
2021/10/13 04:52:43;;;;;;;14.87;13.50;;;;;;;9.39;89.64;99298.69;4979903;28;103221;-69
2021/10/13 04:55:11;;;;;;;17.27;15.57;;;;;;;9.31;89.39;99290.38;4969278;28;103252;-67
2021/10/13 04:57:39;;;;;;;19.87;14.17;;;;;;;8.57;93.03;99303.34;4977964;28;102635;-67
2021/10/13 05:00:10;;;;;;;16.43;12.13;;;;;;;8.24;95.29;99299.03;4975692;28;103834;-68
2021/10/13 05:02:38;;;;;;;15.03;12.20;;;;;;;8.32;96.02;99299.47;4977568;28;103269;-67
2021/10/13 05:05:07;;;;;;;14.37;12.80;;;;;;;8.25;95.61;99301.59;4980882;28;103483;-67
2021/10/13 05:07:35;;;;;;;13.87;11.30;;;;;;;8.11;96.40;99298.84;4981226;28;102747;-67
2021/10/13 05:10:04;;;;;;;14.60;12.03;;;;;;;7.92;97.40;99304.19;4981257;28;103678;-57
2021/10/13 05:12:32;;;;;;;14.07;12.50;;;;;;;7.84;97.69;99295.00;4987116;28;103800;-57
2021/10/13 05:15:00;;;;;;;12.70;10.33;;;;;;;7.94;97.73;99301.50;4984283;28;103196;-58
2021/10/13 05:17:30;;;;;;;13.70;12.13;;;;;;;7.90;97.33;99295.53;4982747;28;102859;-68
2021/10/13 05:19:58;;;;;;;11.97;9.30;;;;;;;8.03;97.24;99303.63;4984864;28;102656;-67
2021/10/13 05:22:26;;;;;;;14.60;11.33;;;;;;;8.01;96.39;99305.50;4990803;28;103976;-67
2021/10/13 05:24:54;;;;;;;12.73;10.53;;;;;;;8.07;96.95;99306.03;4981381;28;104168;-67
2021/10/13 05:27:22;;;;;;;11.70;9.50;;;;;;;8.14;96.67;99303.91;4988355;28;102581;-66
2021/10/13 05:29:49;;;;;;;18.27;13.00;;;;;;;8.08;96.45;99309.53;4982792;28;102754;-68
2021/10/13 05:32:18;;;;;;;10.80;9.60;;;;;;;8.03;96.90;99301.00;4983965;28;103390;-68
2021/10/13 05:34:47;;;;;;;13.13;11.77;;;;;;;8.01;96.90;99311.63;4990477;28;102682;-69
2021/10/13 05:37:15;;;;;;;15.83;10.63;;;;;;;7.96;96.92;99310.16;4993464;28;102794;-69
2021/10/13 05:39:43;;;;;;;13.80;11.30;;;;;;;7.95;97.48;99306.66;4992561;28;103111;-69
2021/10/13 05:42:11;;;;;;;12.93;10.33;;;;;;;7.91;97.98;99306.91;4988816;28;103272;-68
2021/10/13 05:44:39;;;;;;;11.80;10.07;;;;;;;8.00;97.84;99316.97;4986667;28;103265;-69
2021/10/13 05:47:07;;;;;;;12.67;9.87;;;;;;;8.01;97.39;99324.78;4986726;28;102675;-69
2021/10/13 05:49:36;;;;;;;14.30;11.47;;;;;;;8.00;97.06;99324.88;4985966;28;103877;-69
2021/10/13 05:52:07;;;;;;;11.87;10.50;;;;;;;7.92;97.51;99324.38;4991361;28;103476;-70
2021/10/13 05:54:35;;;;;;;11.23;9.97;;;;;;;7.88;97.59;99331.59;4980770;28;103739;-59
2021/10/13 05:57:03;;;;;;;14.57;11.33;;;;;;;7.94;98.20;99333.91;4984200;28;102670;-59
2021/10/13 05:59:31;;;;;;;10.33;9.23;;;;;;;8.02;97.89;99334.38;4987162;28;103838;-70
2021/10/13 06:01:59;;;;;;;10.77;8.90;;;;;;;7.94;97.79;99354.13;4990787;28;103794;-59
2021/10/13 06:04:27;;;;;;;13.10;10.67;;;;;;;7.99;97.70;99354.72;4989516;28;103395;-70
2021/10/13 06:06:55;;;;;;;12.73;10.53;;;;;;;8.09;97.13;99363.84;4985984;28;102913;-68
2021/10/13 06:09:25;;;;;;;10.33;8.77;;;;;;;8.14;97.02;99372.34;4984673;28;103369;-57
2021/10/13 06:11:53;;;;;;;13.10;10.87;;;;;;;8.16;96.61;99371.34;4987768;28;103247;-68
2021/10/13 06:14:20;;;;;;;14.53;11.10;;;;;;;8.17;97.08;99383.56;4985688;28;103257;-68
2021/10/13 06:16:48;;;;;;;11.43;9.00;;;;;;;8.23;96.39;99389.44;4983570;28;102684;-68
2021/10/13 06:19:16;;;;;;;14.27;11.07;;;;;;;8.09;97.15;99390.16;4979084;28;103809;-68
2021/10/13 06:21:45;;;;;;;13.03;9.57;;;;;;;8.30;97.21;99394.38;4974847;28;103962;-69
2021/10/13 06:24:13;;;;;;;9.67;8.67;;;;;;;8.47;97.13;99399.59;4978482;28;103225;-67
2021/10/13 06:26:42;;;;;;;15.33;11.43;;;;;;;8.54;96.76;99400.09;4977363;28;103141;-69
2021/10/13 06:29:10;;;;;;;8.77;7.87;;;;;;;8.62;96.99;99401.41;4981083;28;102563;-69
2021/10/13 06:31:38;;;;;;;10.27;8.60;;;;;;;8.67;96.35;99399.38;4984446;28;104185;-69
2021/10/13 06:34:06;;;;;;;8.27;7.03;;;;;;;8.76;96.06;99408.56;4980446;28;104278;-70
2021/10/13 06:36:35;;;;;;;10.40;8.40;;;;;;;8.84;94.98;99416.06;4989621;28;102674;-69
2021/10/13 06:39:03;;;;;;;10.03;8.37;;;;;;;8.92;95.14;99427.03;4982422;28;103913;-69
2021/10/13 06:41:31;;;;;;;13.57;11.33;;;;;;;8.83;94.21;99415.22;4983232;28;103253;-70
2021/10/13 06:44:01;;;;;;;12.80;10.60;;;;;;;8.75;94.51;99422.69;4986767;28;103806;-70
2021/10/13 06:46:29;;;;;;;12.77;10.20;;;;;;;8.61;95.26;99426.06;4988702;27;103921;-69
2021/10/13 06:48:57;;;;;;;11.60;10.17;;;;;;;8.72;95.69;99426.34;4985643;28;102748;-69
2021/10/13 06:51:25;;;;;;;15.10;10.30;;;;;;;8.70;95.97;99430.81;4989706;28;104058;-70
2021/10/13 06:53:53;;;;;;;11.00;9.63;;;;;;;8.68;94.81;99429.19;4983911;28;103228;-70
2021/10/13 06:56:21;;;;;;;13.67;10.47;;;;;;;8.75;95.10;99433.22;4983293;28;102641;-70
2021/10/13 06:58:51;;;;;;;9.97;8.73;;;;;;;8.74;96.14;99429.72;4980277;28;102649;-68
2021/10/13 07:01:20;;;;;;;9.90;8.13;;;;;;;8.82;95.37;99431.94;4983611;28;103641;-69
2021/10/13 07:03:48;;;;;;;11.67;8.87;;;;;;;8.74;96.66;99442.91;4984652;28;104465;-69
2021/10/13 07:06:16;;;;;;;11.07;9.20;;;;;;;8.94;94.69;99444.47;4986787;28;102682;-69
2021/10/13 07:08:44;;;;;;;8.70;7.13;;;;;;;8.90;94.78;99442.94;4985530;28;103897;-69
2021/10/13 07:11:13;;;;;;;10.10;8.00;;;;;;;8.87;95.22;99442.25;4983801;28;103427;-57
2021/10/13 07:13:41;;;;;;;11.13;9.60;;;;;;;8.99;94.22;99446.84;4983605;28;103171;-58
2021/10/13 07:16:09;;;;;;;14.57;11.83;;;;;;;8.98;94.35;99450.44;4991100;28;103421;-58
2021/10/13 07:18:38;;;;;;;11.97;10.30;;;;;;;9.03;93.23;99453.69;4986854;28;102736;-58
2021/10/13 07:21:06;;;;;;;10.77;8.37;;;;;;;9.24;94.86;99444.56;4984468;28;103735;-57
2021/10/13 07:23:34;;;;;;;14.97;10.43;;;;;;;9.65;92.10;99435.22;4982471;28;103312;-58
2021/10/13 07:26:06;;;;;;;11.20;9.93;;;;;;;10.02;91.16;99439.19;4983606;28;102726;-58
2021/10/13 07:28:38;;;;;;;14.53;11.17;;;;;;;9.87;90.07;99438.31;4979486;28;103850;-59
2021/10/13 07:31:07;;;;;;;15.10;12.53;;;;;;;9.32;91.87;99439.72;4981501;28;103680;-70
2021/10/13 07:33:35;;;;;;;17.47;13.43;;;;;;;8.81;94.46;99442.59;4984213;28;103492;-70
2021/10/13 07:36:06;;;;;;;15.87;12.43;;;;;;;8.62;95.88;99443.53;4987467;28;102753;-58
2021/10/13 07:38:34;;;;;;;14.90;12.73;;;;;;;8.84;95.73;99445.06;4982773;28;102673;-69
2021/10/13 07:41:03;;;;;;;14.17;12.07;;;;;;;9.14;93.79;99453.94;4982850;28;103822;-58
2021/10/13 07:43:32;;;;;;;11.53;9.83;;;;;;;9.31;93.59;99448.59;4987963;28;102622;-69
2021/10/13 07:46:01;;;;;;;17.43;14.17;;;;;;;8.92;94.01;99456.03;4985011;28;103265;-68
2021/10/13 07:48:29;;;;;;;13.10;9.47;;;;;;;9.03;94.75;99464.22;4980992;28;102843;-70
2021/10/13 07:50:57;;;;;;;15.50;12.87;;;;;;;9.33;92.95;99465.16;4983257;28;103294;-69
2021/10/13 07:53:27;;;;;;;12.10;10.20;;;;;;;9.52;93.02;99468.47;4984471;28;103783;-69
2021/10/13 07:55:55;;;;;;;11.60;10.17;;;;;;;9.64;93.01;99462.53;4985579;28;103255;-69
2021/10/13 07:58:23;;;;;;;17.40;12.07;;;;;;;9.70;92.11;99467.47;4979565;28;102643;-69
2021/10/13 08:00:51;;;;;;;13.63;12.33;;;;;;;9.99;92.26;99470.22;4985686;28;103387;-69
2021/10/13 08:03:23;;;;;;;18.70;12.63;;;;;;;9.98;90.48;99472.00;4986974;28;103232;-69
2021/10/13 08:05:52;;;;;;;12.30;11.00;;;;;;;9.91;89.84;99471.50;4980796;28;102642;-69
2021/10/13 08:08:20;;;;;;;14.23;12.47;;;;;;;10.06;90.14;99479.47;4988241;28;103843;-70
2021/10/13 08:10:49;;;;;;;16.37;12.20;;;;;;;9.98;90.92;99477.28;4991577;28;103252;-60
2021/10/13 08:13:17;;;;;;;11.43;9.63;;;;;;;10.30;90.87;99470.19;4989075;28;103837;-59
2021/10/13 08:15:45;;;;;;;11.37;8.97;;;;;;;10.73;88.96;99471.06;4982512;28;103371;-59
2021/10/13 08:18:14;;;;;;;23.67;19.43;;;;;;;10.49;87.96;99478.72;4982475;28;103917;-60
2021/10/13 08:20:42;;;;;;;20.30;15.40;;;;;;;9.93;89.43;99484.63;4982851;28;103360;-59
2021/10/13 08:23:10;;;;;;;19.00;15.13;;;;;;;10.04;90.11;99492.78;4977848;28;103230;-68
2021/10/13 08:25:38;;;;;;;20.50;13.77;;;;;;;9.87;92.37;99490.25;4984440;28;102734;-67
2021/10/13 08:28:08;;;;;;;17.50;13.77;;;;;;;10.12;91.82;99489.69;4987706;28;102596;-69
2021/10/13 08:30:36;;;;;;;18.53;14.30;;;;;;;10.45;91.06;99488.59;4983772;28;103636;-69
2021/10/13 08:33:05;;;;;;;20.90;16.23;;;;;;;10.43;89.80;99485.19;4983597;28;103285;-69
2021/10/13 08:35:33;;;;;;;22.47;14.53;;;;;;;10.56;89.15;99485.31;4987946;28;102742;-69
2021/10/13 08:38:00;;;;;;;18.23;14.40;;;;;;;10.75;88.89;99490.34;4990156;28;103879;-57
2021/10/13 08:40:29;;;;;;;22.47;14.90;;;;;;;10.44;89.82;99496.63;4983726;28;103353;-57
2021/10/13 08:43:00;;;;;;;28.87;18.00;;;;;;;10.27;88.47;99499.41;4986511;28;103226;-61
2021/10/13 08:45:32;;;;;;;25.30;17.33;;;;;;;10.87;88.50;99485.16;4988510;28;102814;-69
2021/10/13 08:48:01;;;;;;;23.77;16.50;;;;;;;10.77;88.52;99489.31;4984351;28;103814;-69
2021/10/13 08:50:30;;;;;;;24.97;18.00;;;;;;;10.93;87.11;99483.94;4988207;28;103329;-57
2021/10/13 08:53:05;;;;;;;22.97;16.40;;;;;;;11.16;84.06;99487.81;4988449;28;103229;-57
2021/10/13 08:55:33;;;;;;;21.60;15.33;;;;;;;11.10;85.21;99488.19;4978364;28;102719;-57
2021/10/13 08:58:08;;;;;;;25.93;18.03;;;;;;;9.96;88.38;99496.81;4979672;28;103876;-57
2021/10/13 09:00:38;;;;;;;22.97;16.33;;;;;;;10.14;88.96;99493.13;4990321;28;103255;-69
2021/10/13 09:03:06;;;;;;;19.33;14.80;;;;;;;10.34;88.78;99492.81;4986124;28;102640;-68
2021/10/13 09:05:43;;;;;;;23.30;16.50;;;;;;;10.55;88.93;99495.97;4991314;28;102938;-70
2021/10/13 09:08:11;;;;;;;19.40;15.20;;;;;;;10.62;89.33;99492.88;4989430;28;103734;-69
2021/10/13 09:10:40;;;;;;;18.83;14.50;;;;;;;10.85;91.04;99483.56;4991588;28;103074;-69
2021/10/13 09:13:14;;;;;;;20.10;14.53;;;;;;;10.93;87.42;99490.06;4988605;28;103350;-70
2021/10/13 09:15:49;;;;;;;18.98;15.27;;;;;;;11.59;87.02;99490.28;4980747;28;102798;-70
2021/10/13 09:18:22;;;;;;;16.20;13.30;;;;;;;11.56;86.15;99489.66;4983012;28;104017;-71
2021/10/13 09:20:51;;;;;;;15.40;10.13;;;;;;;11.19;85.30;99490.25;4979484;28;103272;-70
2021/10/13 09:23:21;;;;;;;11.90;8.30;;;;;;;10.92;86.42;99498.94;4981981;28;103231;-70
2021/10/13 09:26:05;;;;;;;11.13;8.03;;;;;;;11.06;84.86;99498.94;4984973;28;102692;-69
2021/10/13 09:28:40;;;;;;;7.97;6.63;;;;;;;11.17;84.30;99498.28;4985612;28;104026;-70
2021/10/13 09:31:15;;;;;;;9.23;6.80;;;;;;;11.03;82.61;99514.19;4985617;28;103366;-57
2021/10/13 09:33:58;;;;;;;11.27;7.70;;;;;;;10.42;84.20;99509.06;4986015;28;103282;-69
2021/10/13 09:36:33;;;;;;;11.87;8.47;;;;;;;10.40;86.20;99516.22;4986680;28;102692;-70
2021/10/13 09:39:09;;;;;;;13.70;10.10;;;;;;;10.58;88.44;99504.59;4986838;28;102631;-71
2021/10/13 09:41:57;;;;;;;11.77;8.80;;;;;;;11.16;88.39;99516.91;4978995;28;104300;-71
2021/10/13 09:44:25;;;;;;;15.67;11.10;;;;;;;11.34;86.12;99507.84;4991500;28;103262;-72
2021/10/13 09:46:59;;;;;;;17.90;14.07;;;;;;;11.55;83.20;99499.38;4992095;28;102632;-71
2021/10/13 09:49:30;;;;;;;16.20;12.50;;;;;;;11.55;84.38;99509.09;4982278;28;102750;-70
2021/10/13 09:52:06;;;;;;;17.23;13.77;;;;;;;11.49;84.63;99509.50;4983312;28;104041;-71
2021/10/13 09:54:35;;;;;;;17.17;13.10;;;;;;;11.33;85.53;99508.75;4972897;28;103154;-69
2021/10/13 09:57:18;;;;;;;11.27;9.23;;;;;;;11.87;81.21;99505.28;4973221;28;103091;-70
2021/10/13 10:00:01;;;;;;;13.03;9.70;;;;;;;12.16;79.82;99504.22;4985734;28;103834;-69
2021/10/13 10:02:35;;;;;;;11.97;9.50;;;;;;;12.03;81.82;99511.28;4981943;28;103328;-58
2021/10/13 10:05:09;;;;;;;14.87;12.00;;;;;;;12.21;80.00;99507.41;4990031;28;103264;-58
2021/10/13 10:07:42;;;;;;;12.47;10.90;;;;;;;11.78;81.81;99507.69;4987175;28;102618;-60
2021/10/13 10:10:15;;;;;;;16.10;12.80;;;;;;;11.53;81.97;99516.31;4988808;28;103735;-58
2021/10/13 10:12:58;;;;;;;15.67;13.27;;;;;;;11.18;82.70;99512.34;4974652;28;103315;-58
2021/10/13 10:15:31;;;;;;;16.63;14.13;;;;;;;11.03;84.07;99507.06;4967662;28;103253;-58
2021/10/13 10:18:01;;;;;;;14.23;11.47;;;;;;;12.21;80.15;99496.81;4983664;28;102670;-58
2021/10/13 10:20:37;;;;;;;13.83;10.87;;;;;;;11.97;80.30;99495.78;4976858;28;103064;-58
2021/10/13 10:23:28;;;;;;;11.43;10.03;;;;;;;11.74;77.28;99496.41;4976368;28;103992;-58
2021/10/13 10:25:58;;;;;;;13.17;10.17;;;;;;;12.13;79.99;99496.47;4996343;28;103233;-58
2021/10/13 10:28:55;;;;;;;16.00;11.63;;;;;;;11.49;80.36;99498.91;4987430;28;102884;-59
2021/10/13 10:31:37;;;;;;;14.00;11.07;;;;;;;10.62;82.06;99500.81;4990625;28;103713;-58
2021/10/13 10:34:19;;;;;;;12.80;10.47;;;;;;;10.47;82.38;99502.56;4987380;28;102685;-58
2021/10/13 10:37:10;;;;;;;14.57;11.53;;;;;;;11.05;81.42;99499.91;4990464;28;103222;-58
2021/10/13 10:40:04;;;;;;;11.80;8.73;;;;;;;12.09;78.20;99504.72;4991913;28;102968;-58
2021/10/13 10:42:55;;;;;;;11.97;9.73;;;;;;;11.88;77.02;99509.63;4988521;28;102909;-59
2021/10/13 10:45:26;;;;;;;13.30;9.90;;;;;;;11.70;78.03;99497.59;4991464;28;103165;-59
2021/10/13 10:47:57;;;;;;;8.33;7.33;;;;;;;11.85;78.31;99501.88;4989428;28;104194;-59
2021/10/13 10:50:42;;;;;;;7.70;6.30;;;;;;;12.76;77.12;99501.03;4992431;28;102889;-59
2021/10/13 10:53:15;;;;;;;;;;;;;;;12.41;76.95;99498.13;4989891;28;102661;-59
2021/10/13 10:55:43;;;;;;;;;;;;;;;12.32;77.70;99505.88;4992369;28;103978;-71
2021/10/13 10:58:16;;;;;;;;;;;;;;;12.73;76.22;99501.25;4992764;28;104112;-70
2021/10/13 11:00:44;;;;;;;;;;;;;;;11.91;76.77;99495.31;4986151;28;103677;-70
2021/10/13 11:03:20;;;;;;;;;;;;;;;12.16;76.94;99498.06;4991043;28;103834;-71
2021/10/13 11:05:54;;;;;;;;;;;;;;;11.33;78.03;99503.47;4979603;28;104095;-70
2021/10/13 11:08:22;;;;;;;;;;;;;;;11.70;79.00;99497.59;4988986;28;103174;-71
2021/10/13 11:10:49;;;;;;;;;;;;;;;11.61;78.80;99500.78;4984400;28;102694;-71
2021/10/13 11:13:23;;;;;;;;;;;;;;;12.27;75.68;99500.03;4982268;28;103763;-70
2021/10/13 11:15:52;;;;;;;;;;;;;;;12.51;73.95;99501.03;4985765;28;103301;-71
2021/10/13 11:18:20;;;;;;;;;;;;;;;12.15;75.08;99507.81;4992849;28;103390;-71
2021/10/13 11:20:48;;;;;;;;;;;;;;;11.47;79.39;99496.38;4981898;28;102648;-70
2021/10/13 11:23:18;;;;;;;;;;;;;;;12.37;77.67;99493.16;4996399;28;103744;-71
2021/10/13 11:25:46;;;;;;;;;;;;;;;13.57;72.41;99491.75;4988020;28;103456;-74
2021/10/13 11:28:15;;;;;;;;;;;;;;;13.05;71.23;99491.91;4993635;28;103169;-71
2021/10/13 11:30:43;;;;;;;;;;;;;;;13.90;71.45;99504.38;4992163;28;102592;-58
2021/10/13 11:33:12;;;;;;;;;;;;;;;13.99;70.34;99489.56;4991402;28;102609;-70
2021/10/13 11:35:41;;;;;;;;;;;;;;;12.99;72.79;99496.81;5002741;28;103292;-59
2021/10/13 11:38:14;;;;;;;;;;;;;;;12.62;72.58;99506.44;4991640;28;104654;-58
2021/10/13 11:40:43;;;;;;;;;;;;;;;13.55;71.38;99500.78;4989830;28;102619;-58